createdAt,value
2018-11-29T00:00:18.401Z,7.9
2018-11-29T00:01:19.942Z,7.9
2018-11-29T00:02:21.488Z,7.9
2018-11-29T00:03:22.887Z,7.9
2018-11-29T00:04:24.448Z,7.9
2018-11-29T00:05:25.555Z,7.9
2018-11-29T00:06:27.089Z,7.9
2018-11-29T00:07:28.020Z,7.9
2018-11-29T00:08:29.403Z,7.9
2018-11-29T00:09:30.778Z,7.9
2018-11-29T00:10:32.326Z,7.9
2018-11-29T00:11:33.892Z,7.9
2018-11-29T00:12:34.964Z,7.8
2018-11-29T00:13:36.362Z,7.9
2018-11-29T00:14:37.830Z,7.8
2018-11-29T00:15:39.379Z,7.9
2018-11-29T00:16:40.931Z,7.9
2018-11-29T00:17:42.169Z,7.9
2018-11-29T00:18:43.566Z,7.9
2018-11-29T00:19:45.135Z,7.9
2018-11-29T00:20:46.502Z,7.9
2018-11-29T00:21:48.069Z,7.8
2018-11-29T00:22:49.473Z,7.8
2018-11-29T00:23:50.912Z,7.8
2018-11-29T00:24:52.317Z,7.8
2018-11-29T00:25:53.873Z,7.9
2018-11-29T00:26:55.421Z,7.9
2018-11-29T00:27:56.814Z,7.9
2018-11-29T00:28:58.199Z,7.8
2018-11-29T00:29:59.743Z,7.9
2018-11-29T00:31:01.117Z,7.8
2018-11-29T00:32:02.680Z,7.9
2018-11-29T00:33:04.084Z,7.9
2018-11-29T00:34:05.468Z,7.9
2018-11-29T00:35:06.880Z,7.9
2018-11-29T00:36:08.447Z,7.9
2018-11-29T00:37:09.825Z,7.9
2018-11-29T00:38:11.218Z,7.9
2018-11-29T00:39:12.750Z,7.9
2018-11-29T00:40:14.126Z,7.9
2018-11-29T00:41:15.667Z,7.9
2018-11-29T00:42:17.069Z,7.9
2018-11-29T00:43:18.609Z,7.9
2018-11-29T00:44:20.004Z,7.8
2018-11-29T00:45:21.574Z,7.8
2018-11-29T00:46:23.134Z,7.8
2018-11-29T00:47:24.531Z,7.8
2018-11-29T00:48:26.065Z,7.8
2018-11-29T00:49:27.467Z,7.9
2018-11-29T00:50:29.021Z,7.9
2018-11-29T00:51:30.574Z,7.9
2018-11-29T00:52:31.970Z,7.9
2018-11-29T00:53:33.515Z,7.9
2018-11-29T00:54:34.903Z,7.9
2018-11-29T00:55:36.459Z,7.9
2018-11-29T00:56:37.995Z,7.9
2018-11-29T00:57:39.404Z,7.9
2018-11-29T00:58:40.942Z,7.9
2018-11-29T00:59:42.489Z,7.9
2018-11-29T01:00:43.571Z,7.2
2018-11-29T01:01:44.801Z,7.2
2018-11-29T01:02:46.211Z,7.3
2018-11-29T01:03:47.775Z,7.3
2018-11-29T01:04:48.828Z,7.3
2018-11-29T01:05:50.213Z,7.4
2018-11-29T01:06:51.617Z,7.4
2018-11-29T01:07:52.697Z,7.4
2018-11-29T01:08:54.290Z,7.4
2018-11-29T01:09:55.833Z,7.5
2018-11-29T01:10:57.221Z,7.5
2018-11-29T01:11:58.597Z,7.5
2018-11-29T01:13:00.126Z,7.6
2018-11-29T01:14:01.537Z,7.6
2018-11-29T01:15:02.970Z,7.6
2018-11-29T01:16:04.538Z,7.6
2018-11-29T01:17:06.072Z,7.6
2018-11-29T01:18:07.464Z,7.6
2018-11-29T01:19:08.858Z,7.7
2018-11-29T01:20:10.078Z,7.7
2018-11-29T01:21:11.479Z,7.7
2018-11-29T01:22:12.697Z,7.8
2018-11-29T01:23:14.088Z,7.8
2018-11-29T01:24:15.490Z,7.8
2018-11-29T01:25:16.881Z,7.8
2018-11-29T01:26:18.417Z,7.8
2018-11-29T01:27:19.960Z,7.8
2018-11-29T01:28:21.022Z,7.8
2018-11-29T01:29:22.563Z,7.8
2018-11-29T01:30:23.951Z,7.8
2018-11-29T01:31:25.189Z,7.8
2018-11-29T01:32:26.575Z,7.7
2018-11-29T01:33:27.815Z,7.8
2018-11-29T01:34:29.179Z,7.8
2018-11-29T01:35:30.561Z,7.8
2018-11-29T01:36:31.775Z,7.8
2018-11-29T01:37:33.145Z,7.8
2018-11-29T01:38:34.713Z,7.8
2018-11-29T01:39:36.293Z,7.8
2018-11-29T01:40:37.707Z,7.8
2018-11-29T01:41:38.940Z,7.8
2018-11-29T01:42:40.466Z,7.8
2018-11-29T01:43:41.841Z,7.8
2018-11-29T01:44:42.898Z,7.8
2018-11-29T01:45:44.694Z,7.8
2018-11-29T01:46:46.235Z,7.8
2018-11-29T01:47:47.459Z,7.8
2018-11-29T01:48:48.866Z,7.8
2018-11-29T01:49:50.408Z,7.8
2018-11-29T01:50:51.799Z,7.8
2018-11-29T01:51:53.363Z,7.8
2018-11-29T01:52:54.917Z,7.8
2018-11-29T01:53:56.475Z,7.8
2018-11-29T01:54:57.857Z,7.8
2018-11-29T01:55:59.273Z,7.8
2018-11-29T01:57:00.824Z,7.8
2018-11-29T01:58:02.369Z,7.8
2018-11-29T01:59:03.757Z,7.8
2018-11-29T02:00:05.127Z,7.8
2018-11-29T02:01:06.369Z,7.8
2018-11-29T02:02:07.938Z,7.7
2018-11-29T02:03:09.487Z,7.7
2018-11-29T02:04:11.038Z,7.7
2018-11-29T02:05:12.606Z,7.7
2018-11-29T02:06:13.840Z,7.6
2018-11-29T02:07:15.393Z,7.5
2018-11-29T02:08:16.941Z,7.4
2018-11-29T02:09:18.342Z,7.4
2018-11-29T02:10:19.887Z,7.2
2018-11-29T02:11:21.440Z,7.1
2018-11-29T02:12:22.833Z,7.2
2018-11-29T02:13:24.382Z,7.2
2018-11-29T02:14:25.924Z,7.1
2018-11-29T02:15:27.300Z,7.1
2018-11-29T02:16:28.541Z,7.1
2018-11-29T02:17:29.948Z,7.1
2018-11-29T02:18:31.173Z,7.1
2018-11-29T02:19:32.725Z,7.1
2018-11-29T02:20:34.110Z,7.1
2018-11-29T02:21:35.362Z,7.1
2018-11-29T02:22:36.758Z,7.1
2018-11-29T02:23:38.136Z,7.1
2018-11-29T02:24:39.377Z,7.1
2018-11-29T02:25:40.926Z,7.1
2018-11-29T02:26:42.322Z,7.1
2018-11-29T02:27:43.736Z,7.1
2018-11-29T02:28:45.304Z,7.1
2018-11-29T02:29:46.857Z,7.1
2018-11-29T02:30:48.259Z,7.1
2018-11-29T02:31:49.848Z,7.1
2018-11-29T02:32:51.242Z,7.1
2018-11-29T02:33:52.669Z,7.1
2018-11-29T02:34:54.050Z,7.1
2018-11-29T02:35:55.606Z,7.1
2018-11-29T02:36:56.844Z,7.1
2018-11-29T02:37:58.051Z,7.1
2018-11-29T02:38:59.660Z,7.1
2018-11-29T02:40:01.246Z,7.2
2018-11-29T02:41:02.871Z,7.2
2018-11-29T02:42:04.282Z,7.2
2018-11-29T02:43:05.806Z,7.2
2018-11-29T02:44:07.348Z,7.2
2018-11-29T02:45:08.881Z,7.2
2018-11-29T02:46:10.468Z,7.2
2018-11-29T02:47:11.872Z,7.2
2018-11-29T02:48:13.267Z,7.2
2018-11-29T02:49:14.806Z,7.2
2018-11-29T02:50:16.351Z,7.2
2018-11-29T02:51:17.792Z,7.2
2018-11-29T02:52:19.385Z,7.2
2018-11-29T02:53:20.953Z,7.2
2018-11-29T02:54:22.364Z,7.2
2018-11-29T02:55:23.744Z,7.2
2018-11-29T02:56:25.308Z,7.2
2018-11-29T02:57:26.873Z,7.2
2018-11-29T02:58:28.250Z,7.2
2018-11-29T02:59:29.641Z,7.2
2018-11-29T03:00:31.220Z,7.2
2018-11-29T03:01:32.768Z,7.2
2018-11-29T03:02:33.998Z,7.2
2018-11-29T03:03:35.395Z,7.2
2018-11-29T03:04:36.958Z,7.2
2018-11-29T03:05:38.184Z,7.2
2018-11-29T03:06:39.449Z,7.3
2018-11-29T03:07:40.893Z,7.3
2018-11-29T03:08:42.122Z,7.4
2018-11-29T03:09:43.527Z,7.4
2018-11-29T03:10:45.074Z,7.5
2018-11-29T03:11:46.480Z,7.5
2018-11-29T03:12:48.026Z,7.6
2018-11-29T03:13:49.425Z,7.6
2018-11-29T03:14:50.993Z,7.6
2018-11-29T03:15:52.233Z,7.7
2018-11-29T03:16:53.610Z,7.7
2018-11-29T03:17:55.197Z,7.7
2018-11-29T03:18:56.727Z,7.7
2018-11-29T03:19:58.128Z,7.7
2018-11-29T03:20:59.346Z,7.7
2018-11-29T03:22:00.899Z,7.7
2018-11-29T03:23:02.448Z,7.7
2018-11-29T03:24:04.014Z,7.8
2018-11-29T03:25:05.420Z,7.8
2018-11-29T03:26:06.689Z,7.8
2018-11-29T03:27:08.110Z,7.8
2018-11-29T03:28:09.512Z,7.9
2018-11-29T03:29:11.065Z,7.8
2018-11-29T03:30:12.409Z,7.8
2018-11-29T03:31:13.499Z,7.8
2018-11-29T03:32:14.927Z,7.9
2018-11-29T03:33:16.511Z,7.8
2018-11-29T03:34:17.900Z,7.8
2018-11-29T03:35:19.288Z,7.8
2018-11-29T03:36:20.824Z,7.8
2018-11-29T03:37:22.390Z,7.8
2018-11-29T03:38:23.799Z,7.8
2018-11-29T03:39:25.039Z,7.9
2018-11-29T03:40:26.578Z,7.9
2018-11-29T03:41:27.975Z,7.9
2018-11-29T03:42:29.358Z,7.9
2018-11-29T03:43:30.947Z,7.9
2018-11-29T03:44:32.538Z,7.9
2018-11-29T03:45:34.081Z,7.9
2018-11-29T03:46:35.314Z,7.9
2018-11-29T03:47:36.881Z,7.9
2018-11-29T03:48:38.280Z,7.9
2018-11-29T03:49:39.827Z,7.9
2018-11-29T03:50:41.402Z,7.9
2018-11-29T03:51:42.651Z,7.9
2018-11-29T03:52:44.088Z,7.9
2018-11-29T03:53:45.655Z,7.9
2018-11-29T03:54:47.048Z,7.9
2018-11-29T03:55:48.603Z,7.9
2018-11-29T03:56:50.045Z,7.9
2018-11-29T03:57:51.468Z,7.9
2018-11-29T03:58:52.721Z,7.9
2018-11-29T03:59:54.302Z,7.9
2018-11-29T04:00:55.861Z,7.9
2018-11-29T04:01:57.247Z,7.8
2018-11-29T04:02:58.819Z,7.8
2018-11-29T04:04:00.216Z,7.8
2018-11-29T04:05:01.801Z,7.8
2018-11-29T04:06:03.019Z,7.8
2018-11-29T04:07:04.576Z,7.8
2018-11-29T04:08:06.139Z,7.8
2018-11-29T04:09:07.717Z,7.8
2018-11-29T04:10:09.098Z,7.8
2018-11-29T04:11:10.648Z,7.8
2018-11-29T04:12:12.022Z,7.8
2018-11-29T04:13:13.420Z,7.7
2018-11-29T04:14:14.833Z,7.6
2018-11-29T04:15:16.422Z,7.5
2018-11-29T04:16:17.843Z,7.4
2018-11-29T04:17:19.398Z,7.2
2018-11-29T04:18:20.768Z,7.2
2018-11-29T04:19:21.848Z,7.2
2018-11-29T04:20:23.413Z,7.2
2018-11-29T04:21:24.969Z,7.2
2018-11-29T04:22:26.471Z,7.1
2018-11-29T04:23:27.844Z,7.2
2018-11-29T04:24:29.086Z,7.1
2018-11-29T04:25:30.641Z,7.2
2018-11-29T04:26:32.277Z,7.2
2018-11-29T04:27:33.695Z,7.2
2018-11-29T04:28:35.162Z,7.2
2018-11-29T04:29:36.576Z,7.2
2018-11-29T04:30:38.040Z,7.2
2018-11-29T04:31:39.444Z,7.2
2018-11-29T04:32:40.838Z,7.2
2018-11-29T04:33:42.105Z,7.2
2018-11-29T04:34:43.518Z,7.2
2018-11-29T04:35:45.114Z,7.2
2018-11-29T04:36:46.513Z,7.3
2018-11-29T04:37:48.129Z,7.3
2018-11-29T04:38:49.400Z,7.4
2018-11-29T04:39:50.976Z,7.5
2018-11-29T04:40:52.529Z,7.6
2018-11-29T04:41:53.323Z,7.7
2018-11-29T04:42:54.897Z,7.7
2018-11-29T04:43:56.269Z,7.8
2018-11-29T04:44:57.649Z,7.8
2018-11-29T04:45:59.053Z,7.9
2018-11-29T04:47:00.606Z,7.9
2018-11-29T04:48:02.709Z,7.9
2018-11-29T04:49:04.450Z,7.8
2018-11-29T04:50:05.934Z,7.9
2018-11-29T04:51:07.521Z,7.8
2018-11-29T04:52:09.106Z,7.9
2018-11-29T04:53:10.665Z,7.9
2018-11-29T04:54:12.085Z,7.9
2018-11-29T04:55:13.580Z,7.9
2018-11-29T04:56:15.137Z,7.9
2018-11-29T04:57:16.537Z,7.9
2018-11-29T04:58:18.093Z,7.9
2018-11-29T04:59:19.667Z,7.9
2018-11-29T05:00:21.078Z,7.9
2018-11-29T05:01:22.641Z,7.9
2018-11-29T05:02:24.081Z,7.8
2018-11-29T05:03:25.357Z,7.8
2018-11-29T05:04:26.618Z,7.8
2018-11-29T05:05:28.094Z,7.8
2018-11-29T05:06:29.401Z,7.8
2018-11-29T05:07:30.829Z,7.8
2018-11-29T05:08:32.376Z,7.8
2018-11-29T05:09:33.615Z,7.8
2018-11-29T05:10:35.046Z,7.8
2018-11-29T05:11:36.620Z,7.8
2018-11-29T05:12:38.055Z,7.8
2018-11-29T05:13:39.593Z,7.8
2018-11-29T05:14:41.128Z,7.8
2018-11-29T05:15:42.398Z,7.8
2018-11-29T05:16:43.927Z,7.8
2018-11-29T05:17:45.174Z,7.8
2018-11-29T05:18:46.737Z,7.8
2018-11-29T05:19:48.359Z,7.8
2018-11-29T05:20:49.899Z,7.8
2018-11-29T05:21:51.152Z,7.8
2018-11-29T05:22:52.594Z,7.8
2018-11-29T05:23:54.143Z,7.8
2018-11-29T05:24:55.563Z,7.8
2018-11-29T05:25:56.799Z,7.8
2018-11-29T05:26:58.195Z,7.8
2018-11-29T05:27:59.593Z,7.8
2018-11-29T05:29:01.171Z,7.8
2018-11-29T05:30:02.585Z,7.8
2018-11-29T05:31:04.158Z,7.7
2018-11-29T05:32:05.407Z,7.7
2018-11-29T05:33:06.798Z,7.7
2018-11-29T05:34:08.027Z,7.7
2018-11-29T05:35:09.563Z,7.6
2018-11-29T05:36:10.807Z,7.6
2018-11-29T05:37:12.199Z,7.6
2018-11-29T05:38:13.442Z,7.5
2018-11-29T05:39:15.072Z,7.4
2018-11-29T05:40:16.489Z,7.4
2018-11-29T05:41:18.037Z,7.4
2018-11-29T05:42:18.936Z,7.4
2018-11-29T05:43:20.327Z,7.3
2018-11-29T05:44:21.888Z,7.4
2018-11-29T05:45:23.316Z,7.4
2018-11-29T05:46:24.731Z,7.4
2018-11-29T05:47:25.987Z,7.4
2018-11-29T05:48:27.380Z,7.4
2018-11-29T05:49:28.914Z,7.4
2018-11-29T05:50:30.298Z,7.4
2018-11-29T05:51:31.555Z,7.4
2018-11-29T05:52:32.952Z,7.4
2018-11-29T05:53:34.338Z,7.4
2018-11-29T05:54:35.875Z,7.4
2018-11-29T05:55:37.110Z,7.5
2018-11-29T05:56:38.505Z,7.5
2018-11-29T05:57:39.740Z,7.5
2018-11-29T05:58:41.293Z,7.5
2018-11-29T05:59:42.854Z,7.4
2018-11-29T06:00:44.124Z,7.4
2018-11-29T06:01:45.508Z,7.3
2018-11-29T06:02:47.062Z,7.2
2018-11-29T06:03:48.613Z,7.2
2018-11-29T06:04:50.025Z,7.2
2018-11-29T06:05:51.588Z,7.2
2018-11-29T06:06:53.150Z,7.2
2018-11-29T06:07:54.539Z,7.2
2018-11-29T06:08:55.782Z,7.2
2018-11-29T06:09:57.328Z,7.2
2018-11-29T06:10:58.711Z,7.2
2018-11-29T06:12:00.111Z,7.1
2018-11-29T06:13:01.679Z,7.2
2018-11-29T06:14:03.185Z,7.2
2018-11-29T06:15:04.754Z,7.2
2018-11-29T06:16:06.331Z,7.2
2018-11-29T06:17:07.753Z,7.2
2018-11-29T06:18:09.145Z,7.2
2018-11-29T06:19:10.559Z,7.2
2018-11-29T06:20:11.956Z,7.2
2018-11-29T06:21:13.373Z,7.2
2018-11-29T06:22:14.646Z,7.2
2018-11-29T06:23:16.189Z,7.3
2018-11-29T06:24:17.757Z,7.3
2018-11-29T06:25:19.345Z,7.4
2018-11-29T06:26:20.923Z,7.4
2018-11-29T06:27:22.709Z,7.5
2018-11-29T06:28:24.182Z,7.5
2018-11-29T06:29:25.588Z,7.6
2018-11-29T06:30:27.147Z,7.6
2018-11-29T06:31:28.546Z,7.6
2018-11-29T06:32:30.101Z,7.6
2018-11-29T06:33:31.487Z,7.6
2018-11-29T06:34:32.913Z,7.6
2018-11-29T06:35:34.350Z,7.6
2018-11-29T06:36:35.895Z,7.7
2018-11-29T06:37:37.447Z,7.7
2018-11-29T06:38:38.839Z,7.7
2018-11-29T06:39:40.238Z,7.7
2018-11-29T06:40:41.639Z,7.7
2018-11-29T06:41:43.171Z,7.8
2018-11-29T06:42:44.577Z,7.8
2018-11-29T06:43:45.957Z,7.8
2018-11-29T06:44:47.207Z,7.8
2018-11-29T06:45:48.618Z,7.8
2018-11-29T06:46:50.008Z,7.9
2018-11-29T06:47:51.575Z,7.9
2018-11-29T06:48:53.124Z,7.9
2018-11-29T06:49:54.685Z,7.9
2018-11-29T06:50:56.084Z,7.9
2018-11-29T06:51:57.486Z,7.9
2018-11-29T06:52:59.058Z,7.9
2018-11-29T06:54:00.463Z,7.9
2018-11-29T06:55:02.012Z,7.9
2018-11-29T06:56:03.261Z,7.9
2018-11-29T06:57:04.359Z,7.9
2018-11-29T06:58:05.927Z,7.9
2018-11-29T06:59:07.146Z,7.9
2018-11-29T07:00:08.697Z,7.9
2018-11-29T07:01:10.096Z,7.9
2018-11-29T07:02:11.523Z,7.9
2018-11-29T07:03:13.137Z,7.9
2018-11-29T07:04:14.698Z,7.9
2018-11-29T07:05:16.245Z,7.9
2018-11-29T07:06:17.659Z,7.9
2018-11-29T07:07:18.917Z,7.9
2018-11-29T07:08:20.488Z,7.9
2018-11-29T07:09:21.880Z,7.9
2018-11-29T07:10:23.450Z,7.9
2018-11-29T07:11:25.010Z,7.9
2018-11-29T07:12:26.571Z,7.9
2018-11-29T07:13:28.126Z,7.9
2018-11-29T07:14:29.525Z,7.9
2018-11-29T07:15:31.081Z,7.9
2018-11-29T07:16:32.496Z,7.9
2018-11-29T07:17:34.076Z,7.9
2018-11-29T07:18:35.634Z,7.9
2018-11-29T07:19:37.227Z,7.9
2018-11-29T07:20:38.626Z,7.3
2018-11-29T07:21:39.860Z,7.4
2018-11-29T07:22:41.439Z,7.4
2018-11-29T07:23:43.028Z,7.5
2018-11-29T07:24:44.650Z,7.6
2018-11-29T07:25:46.052Z,7.6
2018-11-29T07:26:47.304Z,7.7
2018-11-29T07:27:48.866Z,7.7
2018-11-29T07:28:50.289Z,7.8
2018-11-29T07:29:51.691Z,7.8
2018-11-29T07:30:53.250Z,7.7
2018-11-29T07:31:54.650Z,7.7
2018-11-29T07:32:56.221Z,7.6
2018-11-29T07:33:57.609Z,7.5
2018-11-29T07:34:59.015Z,7.3
2018-11-29T07:36:00.406Z,7.2
2018-11-29T07:37:01.814Z,7.1
2018-11-29T07:38:03.241Z,7.1
2018-11-29T07:39:04.993Z,7.1
2018-11-29T07:40:06.402Z,7.2
2018-11-29T07:41:07.998Z,7.2
2018-11-29T07:42:09.568Z,7.1
2018-11-29T07:43:11.131Z,7.2
2018-11-29T07:44:12.696Z,7.1
2018-11-29T07:45:14.089Z,7.2
2018-11-29T07:46:15.356Z,7.2
2018-11-29T07:47:16.911Z,7.2
2018-11-29T07:48:18.480Z,7.2
2018-11-29T07:49:20.084Z,7.2
2018-11-29T07:50:21.497Z,7.2
2018-11-29T07:51:22.907Z,7.2
2018-11-29T07:52:24.299Z,7.2
2018-11-29T07:53:25.881Z,7.2
2018-11-29T07:54:27.451Z,7.2
2018-11-29T07:55:28.889Z,7.2
2018-11-29T07:56:30.277Z,7.2
2018-11-29T07:57:31.661Z,7.3
2018-11-29T07:58:33.155Z,7.4
2018-11-29T07:59:34.540Z,7.5
2018-11-29T08:00:36.108Z,7.7
2018-11-29T08:01:37.502Z,7.8
2018-11-29T08:02:38.894Z,7.9
2018-11-29T08:03:40.313Z,7.9
2018-11-29T08:04:41.710Z,7.9
2018-11-29T08:05:42.782Z,7.9
2018-11-29T08:06:44.183Z,7.9
2018-11-29T08:07:49.188Z,7.9
2018-11-29T08:08:50.785Z,7.9
2018-11-29T08:09:52.203Z,7.9
2018-11-29T08:10:53.628Z,7.9
2018-11-29T08:11:54.872Z,7.9
2018-11-29T08:12:56.467Z,7.9
2018-11-29T08:13:57.862Z,7.9
2018-11-29T08:14:59.414Z,7.9
2018-11-29T08:16:00.861Z,7.9
2018-11-29T08:17:02.094Z,7.9
2018-11-29T08:18:03.681Z,7.9
2018-11-29T08:19:05.242Z,7.9
2018-11-29T08:20:06.808Z,7.9
2018-11-29T08:21:08.228Z,7.9
2018-11-29T08:22:09.810Z,7.9
2018-11-29T08:23:11.209Z,7.2
2018-11-29T08:24:12.769Z,7.3
2018-11-29T08:25:14.328Z,7.4
2018-11-29T08:26:15.729Z,7.5
2018-11-29T08:27:17.133Z,7.6
2018-11-29T08:28:18.725Z,7.6
2018-11-29T08:29:20.116Z,7.7
2018-11-29T08:30:21.547Z,7.7
2018-11-29T08:31:23.108Z,7.8
2018-11-29T08:32:24.706Z,7.7
2018-11-29T08:33:25.967Z,7.8
2018-11-29T08:34:27.529Z,7.8
2018-11-29T08:35:29.081Z,7.8
2018-11-29T08:36:30.500Z,7.8
2018-11-29T08:37:31.887Z,7.8
2018-11-29T08:38:33.432Z,7.8
2018-11-29T08:39:34.832Z,7.7
2018-11-29T08:40:36.246Z,7.8
2018-11-29T08:41:37.635Z,7.8
2018-11-29T08:42:38.726Z,7.8
2018-11-29T08:43:40.286Z,7.9
2018-11-29T08:44:41.387Z,7.9
2018-11-29T08:45:42.627Z,7.8
2018-11-29T08:46:44.036Z,7.8
2018-11-29T08:47:45.619Z,7.8
2018-11-29T08:48:47.015Z,7.8
2018-11-29T08:49:48.556Z,7.8
2018-11-29T08:50:49.996Z,7.8
2018-11-29T08:51:51.416Z,7.7
2018-11-29T08:52:52.656Z,7.7
2018-11-29T08:53:54.033Z,7.7
2018-11-29T08:54:55.414Z,7.7
2018-11-29T08:55:56.508Z,7.7
2018-11-29T08:56:57.748Z,7.7
2018-11-29T08:57:59.314Z,7.7
2018-11-29T08:59:00.401Z,7.7
2018-11-29T09:00:01.793Z,7.7
2018-11-29T09:01:03.193Z,7.7
2018-11-29T09:02:04.604Z,7.7
2018-11-29T09:03:06.147Z,7.7
2018-11-29T09:04:07.533Z,7.7
2018-11-29T09:05:08.778Z,7.8
2018-11-29T09:06:10.328Z,7.8
2018-11-29T09:07:11.738Z,7.8
2018-11-29T09:08:13.358Z,7.8
2018-11-29T09:09:14.746Z,7.7
2018-11-29T09:10:16.313Z,7.7
2018-11-29T09:11:17.730Z,7.6
2018-11-29T09:12:19.298Z,7.5
2018-11-29T09:13:20.683Z,7.4
2018-11-29T09:14:22.250Z,7.2
2018-11-29T09:15:23.826Z,7.2
2018-11-29T09:16:25.219Z,7.1
2018-11-29T09:17:26.303Z,7.1
2018-11-29T09:18:27.708Z,7.2
2018-11-29T09:19:29.255Z,7.2
2018-11-29T09:20:30.527Z,7.1
2018-11-29T09:21:32.082Z,7.1
2018-11-29T09:22:33.683Z,7.1
2018-11-29T09:23:35.102Z,7.1
2018-11-29T09:24:36.470Z,7.1
2018-11-29T09:25:37.880Z,7.1
2018-11-29T09:26:39.282Z,7.2
2018-11-29T09:27:40.678Z,7.2
2018-11-29T09:28:42.063Z,7.2
2018-11-29T09:29:43.476Z,7.2
2018-11-29T09:30:45.129Z,7.2
2018-11-29T09:31:46.521Z,7.2
2018-11-29T09:32:48.107Z,7.2
2018-11-29T09:33:49.523Z,7.3
2018-11-29T09:34:51.079Z,7.4
2018-11-29T09:35:52.468Z,7.4
2018-11-29T09:36:54.019Z,7.5
2018-11-29T09:37:55.598Z,7.6
2018-11-29T09:38:57.189Z,7.7
2018-11-29T09:39:58.609Z,7.8
2018-11-29T09:41:00.006Z,7.8
2018-11-29T09:42:02.947Z,7.8
2018-11-29T09:43:04.789Z,7.9
2018-11-29T09:44:06.182Z,7.8
2018-11-29T09:45:07.495Z,7.8
2018-11-29T09:46:09.051Z,7.8
2018-11-29T09:47:10.476Z,7.8
2018-11-29T09:48:12.018Z,7.8
2018-11-29T09:49:13.589Z,7.8
2018-11-29T09:50:14.835Z,7.8
2018-11-29T09:51:16.228Z,7.8
2018-11-29T09:52:17.468Z,7.8
2018-11-29T09:53:18.743Z,7.8
2018-11-29T09:54:20.281Z,7.7
2018-11-29T09:55:21.692Z,7.8
2018-11-29T09:56:23.154Z,7.8
2018-11-29T09:57:24.722Z,7.8
2018-11-29T09:58:26.129Z,7.9
2018-11-29T09:59:27.690Z,7.9
2018-11-29T10:00:29.915Z,7.9
2018-11-29T10:01:31.460Z,7.9
2018-11-29T10:02:33.027Z,7.9
2018-11-29T10:03:34.609Z,7.9
2018-11-29T10:04:36.183Z,7.9
2018-11-29T10:05:37.593Z,7.8
2018-11-29T10:06:39.148Z,7.8
2018-11-29T10:07:40.226Z,7.7
2018-11-29T10:08:41.462Z,7.7
2018-11-29T10:09:42.686Z,7.7
2018-11-29T10:10:44.267Z,7.7
2018-11-29T10:11:45.674Z,7.6
2018-11-29T10:12:47.055Z,7.7
2018-11-29T10:13:48.637Z,7.7
2018-11-29T10:14:50.064Z,7.7
2018-11-29T10:15:51.507Z,7.6
2018-11-29T10:16:53.082Z,7.6
2018-11-29T10:17:54.651Z,7.5
2018-11-29T10:18:55.919Z,7.5
2018-11-29T10:19:57.149Z,7.5
2018-11-29T10:20:58.687Z,7.4
2018-11-29T10:22:00.352Z,7.5
2018-11-29T10:23:01.924Z,7.5
2018-11-29T10:24:03.314Z,7.5
2018-11-29T10:25:04.538Z,7.5
2018-11-29T10:26:05.754Z,7.4
2018-11-29T10:27:07.140Z,7.4
2018-11-29T10:28:08.389Z,7.4
2018-11-29T10:29:09.973Z,7.4
2018-11-29T10:30:11.354Z,7.3
2018-11-29T10:31:12.917Z,7.3
2018-11-29T10:32:14.319Z,7.2
2018-11-29T10:33:15.902Z,7.2
2018-11-29T10:34:17.402Z,7.2
2018-11-29T10:35:18.939Z,7.2
2018-11-29T10:36:20.527Z,7.2
2018-11-29T10:37:21.937Z,7.3
2018-11-29T10:38:23.586Z,7.4
2018-11-29T10:39:25.009Z,7.4
2018-11-29T10:40:26.417Z,7.5
2018-11-29T10:41:27.680Z,7.5
2018-11-29T10:42:28.634Z,7.5
2018-11-29T10:43:30.016Z,7.5
2018-11-29T10:44:31.278Z,7.5
2018-11-29T10:45:32.857Z,7.4
2018-11-29T10:46:34.434Z,7.4
2018-11-29T10:47:35.983Z,7.3
2018-11-29T10:48:37.565Z,7.2
2018-11-29T10:49:38.957Z,7.2
2018-11-29T10:50:40.362Z,7.2
2018-11-29T10:51:41.609Z,7.2
2018-11-29T10:52:43.005Z,7.2
2018-11-29T10:53:44.567Z,7.2
2018-11-29T10:54:46.002Z,7.2
2018-11-29T10:55:47.287Z,7.2
2018-11-29T10:56:48.526Z,7.2
2018-11-29T10:57:50.082Z,7.2
2018-11-29T10:58:51.640Z,7.2
2018-11-29T10:59:53.040Z,7.2
2018-11-29T11:00:54.599Z,7.2
2018-11-29T11:01:56.008Z,7.2
2018-11-29T11:02:57.284Z,7.2
2018-11-29T11:03:58.688Z,7.2
2018-11-29T11:05:00.516Z,7.2
2018-11-29T11:06:02.083Z,7.2
2018-11-29T11:07:03.641Z,7.2
2018-11-29T11:08:09.965Z,7.2
2018-11-29T11:09:11.369Z,7.2
2018-11-29T11:10:12.769Z,7.2
2018-11-29T11:11:14.184Z,7.2
2018-11-29T11:12:20.050Z,7.2
2018-11-29T11:13:21.607Z,7.2
2018-11-29T11:14:23.027Z,7.3
2018-11-29T11:15:24.677Z,7.3
2018-11-29T11:16:26.246Z,7.4
2018-11-29T11:17:27.892Z,7.4
2018-11-29T11:18:29.319Z,7.5
2018-11-29T11:19:30.758Z,7.6
2018-11-29T11:20:32.172Z,7.6
2018-11-29T11:21:33.590Z,7.7
2018-11-29T11:22:35.147Z,7.7
2018-11-29T11:23:36.541Z,7.7
2018-11-29T11:24:37.960Z,7.8
2018-11-29T11:25:39.413Z,7.8
2018-11-29T11:26:40.669Z,7.8
2018-11-29T11:27:42.059Z,7.8
2018-11-29T11:28:43.634Z,7.8
2018-11-29T11:29:45.065Z,7.8
2018-11-29T11:30:46.480Z,7.9
2018-11-29T11:31:47.718Z,7.9
2018-11-29T11:32:48.827Z,7.9
2018-11-29T11:33:50.393Z,7.9
2018-11-29T11:34:51.809Z,7.8
2018-11-29T11:35:53.388Z,7.8
2018-11-29T11:36:54.955Z,7.8
2018-11-29T11:37:56.388Z,7.8
2018-11-29T11:38:57.949Z,7.8
2018-11-29T11:39:59.692Z,7.8
2018-11-29T11:41:01.270Z,7.8
2018-11-29T11:42:02.650Z,7.8
2018-11-29T11:43:07.355Z,7.8
2018-11-29T11:44:08.947Z,7.8
2018-11-29T11:45:10.343Z,7.8
2018-11-29T11:46:11.937Z,7.8
2018-11-29T11:47:13.511Z,7.9
2018-11-29T11:48:14.918Z,7.9
2018-11-29T11:49:16.514Z,7.9
2018-11-29T11:50:17.917Z,7.9
2018-11-29T11:51:19.195Z,7.9
2018-11-29T11:52:20.617Z,7.9
2018-11-29T11:53:21.908Z,7.9
2018-11-29T11:54:23.319Z,7.9
2018-11-29T11:55:31.725Z,7.9
2018-11-29T11:56:33.270Z,7.9
2018-11-29T11:57:34.836Z,7.9
2018-11-29T11:58:36.306Z,7.9
2018-11-29T11:59:37.953Z,7.9
2018-11-29T12:00:39.633Z,7.8
2018-11-29T12:01:41.048Z,7.8
2018-11-29T12:02:42.785Z,7.8
2018-11-29T12:03:44.455Z,7.8
2018-11-29T12:04:50.271Z,7.8
2018-11-29T12:05:51.898Z,7.8
2018-11-29T12:06:53.830Z,7.8
2018-11-29T12:07:55.501Z,7.8
2018-11-29T12:08:57.082Z,7.8
2018-11-29T12:09:58.797Z,7.8
2018-11-29T12:11:00.449Z,7.8
2018-11-29T12:12:02.135Z,7.8
2018-11-29T12:13:03.782Z,7.8
2018-11-29T12:14:05.377Z,7.7
2018-11-29T12:15:06.949Z,7.7
2018-11-29T12:16:08.185Z,7.7
2018-11-29T12:17:09.611Z,7.7
2018-11-29T12:18:10.856Z,7.6
2018-11-29T12:19:12.097Z,7.6
2018-11-29T12:20:13.454Z,7.7
2018-11-29T12:21:14.975Z,7.7
2018-11-29T12:22:16.570Z,7.7
2018-11-29T12:23:18.034Z,7.7
2018-11-29T12:24:19.611Z,7.8
2018-11-29T12:25:21.041Z,7.8
2018-11-29T12:26:22.302Z,7.8
2018-11-29T12:27:23.857Z,7.8
2018-11-29T12:28:25.425Z,7.7
2018-11-29T12:29:26.982Z,7.7
2018-11-29T12:30:28.564Z,7.6
2018-11-29T12:31:29.874Z,7.5
2018-11-29T12:32:31.416Z,7.4
2018-11-29T12:33:33.006Z,7.3
2018-11-29T12:34:34.255Z,7.2
2018-11-29T12:35:35.672Z,7.2
2018-11-29T12:36:37.240Z,7.2
2018-11-29T12:37:38.653Z,7.2
2018-11-29T12:38:40.208Z,7.2
2018-11-29T12:39:41.777Z,7.2
2018-11-29T12:40:43.354Z,7.2
2018-11-29T12:41:44.932Z,7.2
2018-11-29T12:42:46.395Z,7.2
2018-11-29T12:43:47.484Z,7.2
2018-11-29T12:44:49.043Z,7.2
2018-11-29T12:45:50.492Z,7.2
2018-11-29T12:46:51.760Z,7.2
2018-11-29T12:47:53.051Z,7.2
2018-11-29T12:48:54.619Z,7.2
2018-11-29T12:49:56.168Z,7.2
2018-11-29T12:50:57.461Z,7.2
2018-11-29T12:51:59.153Z,7.2
2018-11-29T12:53:00.904Z,7.2
2018-11-29T12:54:02.602Z,7.2
2018-11-29T12:55:04.313Z,7.3
2018-11-29T12:56:06.287Z,7.3
2018-11-29T12:57:07.737Z,7.4
2018-11-29T12:58:09.503Z,7.5
2018-11-29T12:59:11.159Z,7.6
2018-11-29T13:00:12.910Z,7.7
2018-11-29T13:01:14.382Z,7.8
2018-11-29T13:02:15.771Z,7.9
2018-11-29T13:03:17.346Z,7.3
2018-11-29T13:04:18.925Z,7.4
2018-11-29T13:05:20.208Z,7.5
2018-11-29T13:06:21.804Z,7.6
2018-11-29T13:07:23.182Z,7.6
2018-11-29T13:08:24.761Z,7.7
2018-11-29T13:09:25.986Z,7.8
2018-11-29T13:10:27.551Z,7.8
2018-11-29T13:11:29.313Z,7.8
2018-11-29T13:12:30.884Z,7.9
2018-11-29T13:13:32.539Z,7.9
2018-11-29T13:14:33.958Z,7.2
2018-11-29T13:15:35.741Z,7.3
2018-11-29T13:16:37.169Z,7.3
2018-11-29T13:17:38.612Z,7.3
2018-11-29T13:18:40.222Z,7.4
2018-11-29T13:19:41.804Z,7.4
2018-11-29T13:20:43.452Z,7.4
2018-11-29T13:21:44.690Z,7.3
2018-11-29T13:22:45.959Z,7.3
2018-11-29T13:23:47.525Z,7.3
2018-11-29T13:24:48.932Z,7.2
2018-11-29T13:25:50.417Z,7.2
2018-11-29T13:26:51.989Z,7.2
2018-11-29T13:27:53.721Z,7.2
2018-11-29T13:28:54.968Z,7.2
2018-11-29T13:29:56.689Z,7.2
2018-11-29T13:30:58.319Z,7.2
2018-11-29T13:32:00.003Z,7.2
2018-11-29T13:33:01.760Z,7.2
2018-11-29T13:34:03.413Z,7.2
2018-11-29T13:35:04.945Z,7.2
2018-11-29T13:36:06.696Z,7.2
2018-11-29T13:37:08.277Z,7.2
2018-11-29T13:38:10.015Z,7.2
2018-11-29T13:39:11.656Z,7.2
2018-11-29T13:40:13.194Z,7.2
2018-11-29T13:41:14.609Z,7.2
2018-11-29T13:42:16.103Z,7.2
2018-11-29T13:43:17.700Z,7.2
2018-11-29T13:44:18.976Z,7.2
2018-11-29T13:45:20.446Z,7.2
2018-11-29T13:46:22.082Z,7.2
2018-11-29T13:47:23.692Z,7.3
2018-11-29T13:48:25.259Z,7.3
2018-11-29T13:49:26.831Z,7.3
2018-11-29T13:50:28.114Z,7.3
2018-11-29T13:51:29.699Z,7.4
2018-11-29T13:52:31.261Z,7.4
2018-11-29T13:53:32.939Z,7.4
2018-11-29T13:54:34.529Z,7.4
2018-11-29T13:55:36.765Z,7.4
2018-11-29T13:56:38.445Z,7.4
2018-11-29T13:57:40.043Z,7.4
2018-11-29T13:58:41.450Z,7.4
2018-11-29T13:59:43.019Z,7.4
2018-11-29T14:00:44.441Z,7.4
2018-11-29T14:01:45.514Z,7.5
2018-11-29T14:02:48.738Z,7.5
2018-11-29T14:03:50.129Z,7.6
2018-11-29T14:04:51.714Z,7.6
2018-11-29T14:05:52.953Z,7.7
2018-11-29T14:06:54.516Z,7.7